createdAt,value
2024-02-07T00:02:10.888Z,100439.05
2024-02-07T00:04:39.904Z,100443.74
2024-02-07T00:07:08.779Z,100444.55
2024-02-07T00:09:37.766Z,100438.48
2024-02-07T00:12:06.653Z,100442.36
2024-02-07T00:14:35.156Z,100438.11
2024-02-07T00:17:04.134Z,100436.94
2024-02-07T00:19:32.681Z,100435.75
2024-02-07T00:22:01.360Z,100436.90
2024-02-07T00:24:29.890Z,100435.30
2024-02-07T00:26:58.603Z,100433.37
2024-02-07T00:29:27.253Z,100437.34
2024-02-07T00:31:55.725Z,100443.81
2024-02-07T00:34:24.398Z,100450.35
2024-02-07T00:36:53.010Z,100450.65
2024-02-07T00:39:21.508Z,100455.41
2024-02-07T00:41:50.603Z,100448.92
2024-02-07T00:44:19.175Z,100454.14
2024-02-07T00:46:47.696Z,100449.98
2024-02-07T00:49:16.233Z,100448.27
2024-02-07T00:51:44.757Z,100451.91
2024-02-07T00:54:13.276Z,100450.95
2024-02-07T00:56:41.832Z,100450.52
2024-02-07T00:59:10.653Z,100450.10
2024-02-07T01:01:39.250Z,100451.71
2024-02-07T01:04:07.706Z,100447.73
2024-02-07T01:06:36.239Z,100445.84
2024-02-07T01:09:04.744Z,100443.55
2024-02-07T01:11:33.372Z,100439.42
2024-02-07T01:14:01.880Z,100441.69
2024-02-07T01:16:30.411Z,100443.39
2024-02-07T01:18:58.994Z,100440.61
2024-02-07T01:21:27.870Z,100442.57
2024-02-07T01:23:56.575Z,100449.11
2024-02-07T01:26:25.312Z,100451.94
2024-02-07T01:28:53.835Z,100458.05
2024-02-07T01:31:23.249Z,100451.37
2024-02-07T01:33:51.910Z,100450.23
2024-02-07T01:36:22.432Z,100446.19
2024-02-07T01:38:51.236Z,100442.85
2024-02-07T01:41:42.683Z,100441.39
2024-02-07T01:44:11.524Z,100439.23
2024-02-07T01:46:40.041Z,100435.59
2024-02-07T01:49:08.804Z,100439.90
2024-02-07T01:51:37.776Z,100438.92
2024-02-07T01:54:06.510Z,100440.88
2024-02-07T01:56:35.692Z,100440.84
2024-02-07T01:59:07.047Z,100441.20
2024-02-07T02:01:38.142Z,100444.14
2024-02-07T02:04:06.927Z,100443.21
2024-02-07T02:06:35.624Z,100440.09
2024-02-07T02:09:06.581Z,100436.91
2024-02-07T02:11:39.461Z,100441.05
2024-02-07T02:14:09.610Z,100441.46
2024-02-07T02:16:38.672Z,100443.88
2024-02-07T02:19:07.402Z,100439.08
2024-02-07T02:22:05.334Z,100440.69
2024-02-07T02:24:58.986Z,100441.08
2024-02-07T02:27:39.627Z,100442.88
2024-02-07T02:30:23.108Z,100442.28
2024-02-07T02:32:52.902Z,100445.25
2024-02-07T02:35:23.931Z,100444.48
2024-02-07T02:37:52.993Z,100446.22
2024-02-07T02:40:21.860Z,100442.98
2024-02-07T02:42:50.434Z,100441.66
2024-02-07T02:45:19.329Z,100437.77
2024-02-07T02:47:47.956Z,100434.13
2024-02-07T02:50:21.659Z,100435.69
2024-02-07T02:52:50.298Z,100438.16
2024-02-07T02:55:19.334Z,100440.97
2024-02-07T02:57:48.426Z,100436.31
2024-02-07T03:00:21.382Z,100434.37
2024-02-07T03:02:49.860Z,100432.72
2024-02-07T03:05:37.279Z,100436.18
2024-02-07T03:08:17.486Z,100436.52
2024-02-07T03:10:46.457Z,100436.26
2024-02-07T03:13:15.091Z,100429.17
2024-02-07T03:15:44.912Z,100425.60
2024-02-07T03:18:14.432Z,100431.96
2024-02-07T03:20:43.232Z,100425.45
2024-02-07T03:23:11.933Z,100428.52
2024-02-07T03:25:40.538Z,100428.60
2024-02-07T03:28:11.960Z,100429.33
2024-02-07T03:30:40.495Z,100431.58
2024-02-07T03:33:09.105Z,100431.08
2024-02-07T03:35:38.723Z,100425.89
2024-02-07T03:38:07.331Z,100417.19
2024-02-07T03:40:35.826Z,100406.41
2024-02-07T03:43:04.794Z,100402.47
2024-02-07T03:45:34.911Z,100404.73
2024-02-07T03:48:06.040Z,100399.81
2024-02-07T03:50:34.640Z,100396.80
2024-02-07T03:53:05.484Z,100396.64
2024-02-07T03:55:34.033Z,100393.16
2024-02-07T03:58:03.173Z,100394.74
2024-02-07T04:00:31.522Z,100400.27
2024-02-07T04:03:00.037Z,100404.96
2024-02-07T04:05:29.749Z,100411.50
2024-02-07T04:07:59.054Z,100414.65
2024-02-07T04:10:27.750Z,100407.45
2024-02-07T04:12:56.198Z,100412.52
2024-02-07T04:15:43.481Z,100413.81
2024-02-07T04:18:31.692Z,100411.52
2024-02-07T04:21:18.576Z,100412.23
2024-02-07T04:24:05.806Z,100409.63
2024-02-07T04:26:55.621Z,100403.77
2024-02-07T04:29:42.705Z,100402.93
2024-02-07T04:32:29.767Z,100410.90
2024-02-07T04:35:17.168Z,100410.59
2024-02-07T04:38:04.251Z,100415.89
2024-02-07T04:40:51.397Z,100407.48
2024-02-07T04:43:38.978Z,100406.89
2024-02-07T04:46:26.069Z,100400.37
2024-02-07T04:49:13.282Z,100401.14
2024-02-07T04:52:00.637Z,100401.60
2024-02-07T04:54:47.901Z,100402.91
2024-02-07T04:57:35.005Z,100397.05
2024-02-07T05:00:21.990Z,100388.92
2024-02-07T05:03:09.316Z,100380.71
2024-02-07T05:05:56.626Z,100382.46
2024-02-07T05:08:43.585Z,100382.44
2024-02-07T05:11:30.671Z,100380.46
2024-02-07T05:14:17.622Z,100382.10
2024-02-07T05:16:47.502Z,100382.80
2024-02-07T05:19:16.090Z,100381.41
2024-02-07T05:21:44.572Z,100381.63
2024-02-07T05:24:13.103Z,100380.89
2024-02-07T05:26:41.581Z,100378.91
2024-02-07T05:29:13.739Z,100381.59
2024-02-07T05:31:42.175Z,100386.07
2024-02-07T05:34:10.843Z,100386.52
2024-02-07T05:36:39.999Z,100382.82
2024-02-07T05:39:08.482Z,100385.88
2024-02-07T05:41:37.191Z,100385.31
2024-02-07T05:44:05.649Z,100386.44
2024-02-07T05:46:34.064Z,100390.98
2024-02-07T05:49:02.413Z,100388.33
2024-02-07T05:51:31.048Z,100387.73
2024-02-07T05:53:59.359Z,100387.96
2024-02-07T05:56:27.737Z,100388.06
2024-02-07T05:58:56.136Z,100392.70
2024-02-07T06:01:24.991Z,100396.31
2024-02-07T06:03:54.694Z,100397.98
2024-02-07T06:06:31.539Z,100402.78
2024-02-07T06:09:00.399Z,100397.88
2024-02-07T06:11:34.128Z,100398.88
2024-02-07T06:14:04.576Z,100399.30
2024-02-07T06:16:33.813Z,100399.70
2024-02-07T06:19:04.176Z,100397.11
2024-02-07T06:21:32.741Z,100397.42
2024-02-07T06:24:01.433Z,100394.69
2024-02-07T06:26:29.914Z,100393.98
2024-02-07T06:28:58.498Z,100386.73
2024-02-07T06:31:27.022Z,100398.25
2024-02-07T06:33:55.527Z,100398.39
2024-02-07T06:36:24.047Z,100403.74
2024-02-07T06:38:52.534Z,100408.63
2024-02-07T06:41:21.209Z,100400.73
2024-02-07T06:43:49.768Z,100408.23
2024-02-07T06:46:18.404Z,100419.52
2024-02-07T06:48:46.934Z,100420.58
2024-02-07T06:51:15.759Z,100416.55
2024-02-07T06:53:44.237Z,100411.90
2024-02-07T06:56:12.756Z,100405.44
2024-02-07T06:58:41.372Z,100402.77
2024-02-07T07:01:10.025Z,100408.26
2024-02-07T07:03:38.628Z,100408.65
2024-02-07T07:06:07.689Z,100410.76
2024-02-07T07:08:36.256Z,100409.09
2024-02-07T07:11:06.151Z,100407.35
2024-02-07T07:13:34.688Z,100410.81
2024-02-07T07:16:03.232Z,100405.25
2024-02-07T07:18:31.965Z,100413.10
2024-02-07T07:21:00.419Z,100412.81
2024-02-07T07:23:29.080Z,100415.48
2024-02-07T07:25:57.598Z,100420.08
2024-02-07T07:28:26.102Z,100417.33
2024-02-07T07:30:57.010Z,100415.83
2024-02-07T07:33:25.470Z,100405.69
2024-02-07T07:35:54.156Z,100400.94
2024-02-07T07:38:22.742Z,100403.86
2024-02-07T07:40:51.264Z,100401.52
2024-02-07T07:43:20.051Z,100394.36
2024-02-07T07:45:48.487Z,100393.98
2024-02-07T07:48:22.356Z,100391.91
2024-02-07T07:50:53.223Z,100392.19
2024-02-07T07:53:21.731Z,100394.36
2024-02-07T07:55:50.221Z,100396.13
2024-02-07T07:58:18.844Z,100393.45
2024-02-07T08:00:50.729Z,100396.76
2024-02-07T08:03:20.506Z,100395.61
2024-02-07T08:05:49.644Z,100393.55
2024-02-07T08:08:18.546Z,100396.22
2024-02-07T08:10:48.379Z,100389.05
2024-02-07T08:13:17.008Z,100382.93
2024-02-07T08:15:45.516Z,100384.34
2024-02-07T08:18:13.968Z,100387.77
2024-02-07T08:20:42.459Z,100384.02
2024-02-07T08:23:11.890Z,100375.96
2024-02-07T08:25:40.534Z,100374.39
2024-02-07T08:28:08.932Z,100377.70
2024-02-07T08:30:37.668Z,100371.35
2024-02-07T08:33:07.141Z,100371.70
2024-02-07T08:35:35.841Z,100373.38
2024-02-07T08:38:04.979Z,100369.73
2024-02-07T08:40:33.420Z,100370.26
2024-02-07T08:43:06.739Z,100376.90
2024-02-07T08:45:39.680Z,100378.66
2024-02-07T08:48:09.317Z,100372.49
2024-02-07T08:50:38.058Z,100370.40
2024-02-07T08:53:06.596Z,100375.98
2024-02-07T08:55:35.704Z,100377.19
2024-02-07T08:58:04.429Z,100379.02
2024-02-07T09:00:32.764Z,100376.68
2024-02-07T09:03:01.039Z,100377.27
2024-02-07T09:05:30.897Z,100381.16
2024-02-07T09:07:59.581Z,100381.11
2024-02-07T09:10:28.047Z,100375.54
2024-02-07T09:12:57.529Z,100372.20
2024-02-07T09:15:26.159Z,100362.80
2024-02-07T09:17:54.722Z,100362.70
2024-02-07T09:20:23.262Z,100360.71
2024-02-07T09:22:51.716Z,100355.71
2024-02-07T09:25:20.136Z,100356.94
2024-02-07T09:27:48.736Z,100358.16
2024-02-07T09:30:17.422Z,100355.14
2024-02-07T09:32:47.481Z,100353.13
2024-02-07T09:35:16.266Z,100349.23
2024-02-07T09:37:44.851Z,100342.10
2024-02-07T09:40:14.034Z,100340.21
2024-02-07T09:42:45.411Z,100338.39
2024-02-07T09:45:17.630Z,100339.46
2024-02-07T09:48:08.294Z,100333.52
2024-02-07T09:50:37.869Z,100323.03
2024-02-07T09:53:09.660Z,100315.61
2024-02-07T09:55:38.558Z,100308.86
2024-02-07T09:58:10.648Z,100308.93
2024-02-07T10:00:39.144Z,100307.75
2024-02-07T10:03:11.561Z,100307.26
2024-02-07T10:05:45.722Z,100302.31
2024-02-07T10:08:14.540Z,100292.16
2024-02-07T10:10:49.322Z,100285.22
2024-02-07T10:13:19.012Z,100285.96
2024-02-07T10:15:49.916Z,100282.23
2024-02-07T10:18:18.575Z,100282.40
2024-02-07T10:20:56.780Z,100277.08
2024-02-07T10:23:25.408Z,100269.46
2024-02-07T10:25:55.397Z,100263.77
2024-02-07T10:28:28.129Z,100258.98
2024-02-07T10:31:06.288Z,100250.40
2024-02-07T10:36:10.009Z,100250.21
2024-02-07T10:38:38.712Z,100253.10
2024-02-07T10:41:07.448Z,100253.38
2024-02-07T10:43:41.841Z,100244.77
2024-02-07T10:46:15.961Z,100250.24
2024-02-07T10:48:45.963Z,100245.41
2024-02-07T10:51:15.212Z,100227.77
2024-02-07T10:53:43.752Z,100217.15
2024-02-07T10:56:19.325Z,100217.88
2024-02-07T10:58:49.884Z,100211.56
2024-02-07T11:01:20.253Z,100214.23
2024-02-07T11:03:49.053Z,100210.64
2024-02-07T11:06:17.873Z,100216.13
2024-02-07T11:08:47.871Z,100206.39
2024-02-07T11:11:16.749Z,100200.52
2024-02-07T11:13:47.243Z,100189.95
2024-02-07T11:16:15.920Z,100189.79
2024-02-07T11:18:44.752Z,100194.61
2024-02-07T11:21:19.025Z,100194.10
2024-02-07T11:23:50.003Z,100189.52
2024-02-07T11:26:19.344Z,100185.73
2024-02-07T11:28:49.087Z,100179.89
2024-02-07T11:31:20.779Z,100169.05
2024-02-07T11:33:53.847Z,100161.57
2024-02-07T11:36:22.792Z,100155.10
2024-02-07T11:38:59.818Z,100148.62
2024-02-07T11:41:29.327Z,100147.95
2024-02-07T11:44:08.149Z,100135.89
2024-02-07T11:46:49.497Z,100136.23
2024-02-07T11:49:21.969Z,100130.17
2024-02-07T11:52:00.781Z,100127.93
2024-02-07T11:54:35.557Z,100124.49
2024-02-07T11:57:04.341Z,100120.27
2024-02-07T11:59:34.494Z,100121.11
2024-02-07T12:02:04.026Z,100115.70
2024-02-07T12:04:40.787Z,100107.11
2024-02-07T12:07:10.448Z,100110.15
2024-02-07T12:09:39.055Z,100106.77
2024-02-07T12:12:14.298Z,100096.98
2024-02-07T12:14:43.192Z,100088.23
2024-02-07T12:17:12.217Z,100090.02
2024-02-07T12:19:45.876Z,100086.16
2024-02-07T12:22:21.051Z,100081.33
2024-02-07T12:24:52.381Z,100078.02
2024-02-07T12:27:24.994Z,100068.91
2024-02-07T12:29:56.882Z,100064.63
2024-02-07T12:32:26.409Z,100060.39
2024-02-07T12:34:56.352Z,100060.29
2024-02-07T12:37:24.949Z,100059.48
2024-02-07T12:39:53.512Z,100054.79
2024-02-07T12:42:23.272Z,100048.84
2024-02-07T12:44:52.167Z,100047.53
2024-02-07T12:47:22.591Z,100041.66
2024-02-07T12:49:52.689Z,100035.48
2024-02-07T12:52:22.495Z,100034.63
2024-02-07T12:54:51.887Z,100031.88
2024-02-07T12:57:24.986Z,100027.39
2024-02-07T12:59:54.688Z,100018.21
2024-02-07T13:02:23.207Z,100017.03
2024-02-07T13:04:52.031Z,100010.67
2024-02-07T13:07:21.752Z,100007.64
2024-02-07T13:09:50.357Z,100008.50
2024-02-07T13:12:26.930Z,100003.06
2024-02-07T13:15:00.424Z,100003.67
2024-02-07T13:17:29.127Z,100002.23
2024-02-07T13:19:57.783Z,100002.14
2024-02-07T13:22:26.446Z,99998.91
2024-02-07T13:24:55.246Z,99997.23
2024-02-07T13:27:23.683Z,99999.80
2024-02-07T13:29:52.277Z,99990.09
2024-02-07T13:32:23.646Z,99982.07
2024-02-07T13:34:52.636Z,99980.30
2024-02-07T13:37:21.092Z,99980.27
2024-02-07T13:39:49.552Z,99981.15
2024-02-07T13:42:20.761Z,99980.66
2024-02-07T13:44:50.550Z,99976.01
2024-02-07T13:47:20.318Z,99973.35
2024-02-07T13:49:49.127Z,99972.83
2024-02-07T13:52:17.822Z,99973.27
2024-02-07T13:54:46.234Z,99962.86
2024-02-07T13:57:14.768Z,99966.95
2024-02-07T13:59:43.253Z,99968.11
2024-02-07T14:02:11.779Z,99968.22
2024-02-07T14:04:40.402Z,99965.38
2024-02-07T14:07:09.051Z,99967.55
2024-02-07T14:09:37.555Z,99965.41
2024-02-07T14:12:07.211Z,99967.64
2024-02-07T14:14:36.510Z,99965.70
2024-02-07T14:17:05.058Z,99966.52
2024-02-07T14:19:33.803Z,99969.22
2024-02-07T14:22:04.510Z,99966.52
2024-02-07T14:24:34.795Z,99963.77
2024-02-07T14:27:03.487Z,99953.30
2024-02-07T14:29:31.908Z,99961.30
2024-02-07T14:32:00.614Z,99957.64
2024-02-07T14:34:29.458Z,99950.80
2024-02-07T14:36:58.266Z,99954.10
2024-02-07T14:39:29.806Z,99951.48
2024-02-07T14:41:58.293Z,99949.98
2024-02-07T14:44:26.702Z,99950.66
2024-02-07T14:46:55.213Z,99955.50
2024-02-07T14:49:24.903Z,99959.52
2024-02-07T14:51:53.451Z,99956.89
2024-02-07T14:54:22.247Z,99960.67
2024-02-07T14:56:52.158Z,99966.36
2024-02-07T14:59:21.269Z,99967.23
2024-02-07T15:01:49.854Z,99968.20
2024-02-07T15:04:18.414Z,99961.65
2024-02-07T15:06:47.053Z,99959.63
2024-02-07T15:09:16.569Z,99955.66
2024-02-07T15:11:44.910Z,99957.91
2024-02-07T15:14:13.289Z,99955.23
2024-02-07T15:16:42.201Z,99953.65
2024-02-07T15:19:10.696Z,99947.83
2024-02-07T15:21:42.532Z,99948.80
2024-02-07T15:24:11.403Z,99941.42
2024-02-07T15:26:39.781Z,99947.14
2024-02-07T15:29:08.248Z,99945.44
2024-02-07T15:31:36.699Z,99952.16
2024-02-07T15:34:05.248Z,99951.00
2024-02-07T15:36:33.637Z,99953.16
2024-02-07T15:39:02.221Z,99957.52
2024-02-07T15:41:31.085Z,99956.98
2024-02-07T15:43:59.534Z,99963.98
2024-02-07T15:46:28.069Z,99965.44
2024-02-07T15:49:06.330Z,99967.49
2024-02-07T15:51:37.723Z,99970.35
2024-02-07T15:54:06.203Z,99970.42
2024-02-07T15:56:34.584Z,99972.76
2024-02-07T15:59:03.177Z,99977.89
2024-02-07T16:01:37.503Z,99976.49
2024-02-07T16:04:14.669Z,99984.13
2024-02-07T16:06:43.176Z,99987.06
2024-02-07T16:09:13.669Z,99984.11
2024-02-07T16:11:41.953Z,99983.23
2024-02-07T16:14:12.500Z,99985.92
2024-02-07T16:16:46.326Z,99987.27
2024-02-07T16:19:14.901Z,99991.27
2024-02-07T16:21:43.254Z,99991.66
2024-02-07T16:24:11.651Z,99991.50
2024-02-07T16:26:40.168Z,99995.10
2024-02-07T16:29:08.525Z,100001.92
2024-02-07T16:31:37.034Z,99996.40
2024-02-07T16:34:05.592Z,100002.41
2024-02-07T16:36:34.134Z,100005.92
2024-02-07T16:39:02.833Z,100010.35
2024-02-07T16:41:31.219Z,100016.50
2024-02-07T16:43:59.508Z,100014.88
2024-02-07T16:46:27.756Z,100012.59
2024-02-07T16:48:56.190Z,100015.73
2024-02-07T16:51:24.844Z,100016.20
2024-02-07T16:53:54.176Z,100013.50
2024-02-07T16:56:22.523Z,100008.71
2024-02-07T16:58:51.334Z,100015.20
2024-02-07T17:01:29.256Z,100011.73
2024-02-07T17:03:57.823Z,100013.75
2024-02-07T17:06:26.307Z,100015.88
2024-02-07T17:08:54.759Z,100012.74
2024-02-07T17:11:23.318Z,100017.54
2024-02-07T17:13:52.140Z,100018.95
2024-02-07T17:16:21.590Z,100018.86
2024-02-07T17:18:50.353Z,100024.35
2024-02-07T17:21:18.988Z,100032.54
2024-02-07T17:23:47.727Z,100029.79
2024-02-07T17:26:16.378Z,100033.80
2024-02-07T17:28:45.322Z,100035.04
2024-02-07T17:31:13.855Z,100044.25
2024-02-07T17:33:42.503Z,100043.33
2024-02-07T17:36:12.460Z,100041.17
2024-02-07T17:38:44.066Z,100045.75
2024-02-07T17:41:13.364Z,100038.80
2024-02-07T17:43:42.857Z,100038.80
2024-02-07T17:46:11.518Z,100037.56
2024-02-07T17:48:40.963Z,100034.79
2024-02-07T17:51:09.613Z,100035.74
2024-02-07T17:53:38.123Z,100032.80
2024-02-07T17:56:07.513Z,100033.35
2024-02-07T17:58:36.247Z,100035.65
2024-02-07T18:01:05.286Z,100035.29
2024-02-07T18:03:35.085Z,100036.89
2024-02-07T18:06:04.629Z,100031.85
2024-02-07T18:08:33.300Z,100034.58
2024-02-07T18:11:02.019Z,100042.87
2024-02-07T18:13:30.756Z,100037.03
2024-02-07T18:15:59.335Z,100038.20
2024-02-07T18:18:27.927Z,100037.97
2024-02-07T18:20:56.421Z,100040.61
2024-02-07T18:23:27.360Z,100039.48
2024-02-07T18:25:57.076Z,100046.48
2024-02-07T18:28:25.621Z,100045.82
2024-02-07T18:30:54.118Z,100049.20
2024-02-07T18:33:22.911Z,100046.55
2024-02-07T18:35:52.838Z,100045.70
2024-02-07T18:38:21.254Z,100052.08
2024-02-07T18:40:49.698Z,100052.45
2024-02-07T18:43:18.191Z,100050.21
2024-02-07T18:45:46.745Z,100049.35
2024-02-07T18:48:17.178Z,100047.27
2024-02-07T18:50:46.895Z,100050.73
2024-02-07T18:53:19.427Z,100050.14
2024-02-07T18:55:49.673Z,100047.56
2024-02-07T18:58:23.631Z,100052.34
2024-02-07T19:00:52.396Z,100051.67
2024-02-07T19:03:21.480Z,100054.02
2024-02-07T19:05:50.251Z,100051.70
2024-02-07T19:08:19.344Z,100057.89
2024-02-07T19:10:47.959Z,100055.83
2024-02-07T19:13:17.569Z,100054.52
2024-02-07T19:15:46.036Z,100056.70
2024-02-07T19:18:14.637Z,100052.02
2024-02-07T19:20:43.492Z,100045.25
2024-02-07T19:23:12.238Z,100045.63
2024-02-07T19:25:40.736Z,100048.69
2024-02-07T19:28:09.367Z,100046.71
2024-02-07T19:30:38.155Z,100043.23
2024-02-07T19:33:06.952Z,100043.97
2024-02-07T19:35:35.808Z,100041.02
2024-02-07T19:38:04.856Z,100038.59
2024-02-07T19:40:33.442Z,100038.80
2024-02-07T19:43:03.443Z,100033.52
2024-02-07T19:45:32.024Z,100033.33
2024-02-07T19:48:00.508Z,100032.81
2024-02-07T19:50:29.250Z,100032.44
2024-02-07T19:52:57.940Z,100031.52
2024-02-07T19:55:26.801Z,100031.27
2024-02-07T19:57:55.492Z,100033.39
2024-02-07T20:00:24.056Z,100032.70
2024-02-07T20:02:52.533Z,100034.69
2024-02-07T20:05:22.678Z,100038.18
2024-02-07T20:07:51.790Z,100038.80
2024-02-07T20:10:20.607Z,100045.63
2024-02-07T20:12:49.053Z,100051.45
2024-02-07T20:15:17.927Z,100050.20
2024-02-07T20:17:47.243Z,100042.66
2024-02-07T20:20:16.210Z,100033.60
2024-02-07T20:22:44.907Z,100024.87
2024-02-07T20:25:13.675Z,100029.59
2024-02-07T20:27:42.364Z,100030.79
2024-02-07T20:30:11.250Z,100025.45
2024-02-07T20:32:39.797Z,100020.14
2024-02-07T20:35:09.814Z,100019.23
2024-02-07T20:37:38.401Z,100018.48
2024-02-07T20:40:07.682Z,100019.65
2024-02-07T20:42:36.377Z,100019.80
2024-02-07T20:45:05.835Z,100018.31
2024-02-07T20:47:37.299Z,100012.58
2024-02-07T20:50:06.925Z,100013.33
2024-02-07T20:52:35.496Z,100014.46
2024-02-07T20:55:06.012Z,100021.70
2024-02-07T20:57:38.077Z,100030.05
2024-02-07T21:00:07.615Z,100041.76
2024-02-07T21:02:36.705Z,100051.88
2024-02-07T21:05:05.688Z,100057.91
2024-02-07T21:07:34.570Z,100059.75
2024-02-07T21:10:03.438Z,100057.31
2024-02-07T21:12:31.796Z,100057.78
2024-02-07T21:15:00.320Z,100060.79
2024-02-07T21:17:29.785Z,100062.66
2024-02-07T21:19:58.585Z,100062.47
2024-02-07T21:22:27.431Z,100063.91
2024-02-07T21:24:56.000Z,100069.10
2024-02-07T21:27:24.678Z,100069.04
2024-02-07T21:29:54.648Z,100066.48
2024-02-07T21:32:23.492Z,100069.38
2024-02-07T21:34:52.168Z,100074.28
2024-02-07T21:37:20.801Z,100072.55
2024-02-07T21:39:49.451Z,100076.89
2024-02-07T21:42:17.950Z,100078.05
2024-02-07T21:44:46.381Z,100080.55
2024-02-07T21:47:15.058Z,100083.63
2024-02-07T21:49:43.645Z,100085.16
2024-02-07T21:52:12.060Z,100086.11
2024-02-07T21:54:40.602Z,100086.15
2024-02-07T21:57:09.206Z,100085.47
2024-02-07T21:59:38.062Z,100085.59
2024-02-07T22:02:07.260Z,100086.58
2024-02-07T22:04:36.008Z,100087.55
2024-02-07T22:07:05.573Z,100088.36
2024-02-07T22:09:34.071Z,100089.66
2024-02-07T22:12:05.841Z,100093.24
2024-02-07T22:14:36.798Z,100091.15
2024-02-07T22:17:05.967Z,100087.18
2024-02-07T22:19:34.598Z,100092.27
2024-02-07T22:22:03.585Z,100093.84
2024-02-07T22:24:31.984Z,100090.34
2024-02-07T22:27:00.484Z,100093.83
2024-02-07T22:29:29.026Z,100091.86
2024-02-07T22:31:57.558Z,100091.50
2024-02-07T22:34:26.295Z,100091.94
2024-02-07T22:36:54.776Z,100087.42
2024-02-07T22:39:23.354Z,100079.34
2024-02-07T22:41:51.947Z,100082.94
2024-02-07T22:44:20.474Z,100085.91
2024-02-07T22:46:52.247Z,100090.95
2024-02-07T22:49:20.919Z,100093.77
2024-02-07T22:51:52.155Z,100088.63
2024-02-07T22:54:22.149Z,100091.27
2024-02-07T22:56:50.665Z,100090.22
2024-02-07T22:59:19.201Z,100093.31
2024-02-07T23:01:47.853Z,100093.60
2024-02-07T23:04:16.591Z,100094.70
2024-02-07T23:06:46.664Z,100090.38
2024-02-07T23:09:15.466Z,100092.20
2024-02-07T23:11:43.988Z,100094.80
2024-02-07T23:14:12.752Z,100095.14
2024-02-07T23:16:41.893Z,100096.45
2024-02-07T23:19:10.773Z,100099.64
2024-02-07T23:21:39.336Z,100094.31
2024-02-07T23:24:08.213Z,100091.04
2024-02-07T23:26:36.912Z,100094.56
2024-02-07T23:29:05.619Z,100100.16
2024-02-07T23:31:34.200Z,100107.98
2024-02-07T23:34:02.832Z,100111.73
2024-02-07T23:36:31.668Z,100111.76
2024-02-07T23:39:00.250Z,100108.35
2024-02-07T23:41:29.002Z,100111.83
2024-02-07T23:43:57.670Z,100105.70
2024-02-07T23:46:26.245Z,100108.80
2024-02-07T23:48:54.937Z,100110.48
2024-02-07T23:51:23.485Z,100118.02
2024-02-07T23:53:53.496Z,100120.77
2024-02-07T23:56:22.087Z,100123.92
2024-02-07T23:58:50.691Z,100126.45
